createdAt,value
2022-08-07T00:02:40.417Z,20.37
2022-08-07T00:04:09.223Z,20.07
2022-08-07T00:06:12.653Z,20.15
2022-08-07T00:08:14.370Z,20.50
2022-08-07T00:10:26.936Z,20.21
2022-08-07T00:12:29.246Z,20.14
2022-08-07T00:14:31.483Z,20.07
2022-08-07T00:16:33.306Z,20.09
2022-08-07T00:18:34.833Z,20.09
2022-08-07T00:20:37.807Z,20.05
2022-08-07T00:22:42.297Z,19.88
2022-08-07T00:24:53.018Z,19.70
2022-08-07T00:26:59.436Z,19.69
2022-08-07T00:29:08.127Z,19.45
2022-08-07T00:31:12.462Z,19.65
2022-08-07T00:33:17.880Z,19.68
2022-08-07T00:35:19.436Z,19.78
2022-08-07T00:37:24.631Z,19.70
2022-08-07T00:39:32.482Z,19.55
2022-08-07T00:41:37.404Z,19.62
2022-08-07T00:44:00.579Z,19.49
2022-08-07T00:46:04.082Z,19.48
2022-08-07T00:48:11.135Z,19.23
2022-08-07T00:50:21.092Z,19.38
2022-08-07T00:52:34.323Z,19.20
2022-08-07T00:54:40.832Z,19.68
2022-08-07T00:56:42.533Z,19.48
2022-08-07T00:58:49.750Z,19.08
2022-08-07T01:00:53.917Z,19.61
2022-08-07T01:02:55.874Z,19.46
2022-08-07T01:04:59.644Z,19.14
2022-08-07T01:07:01.329Z,19.18
2022-08-07T01:09:04.783Z,18.99
2022-08-07T01:12:05.040Z,19.23
2022-08-07T01:13:29.691Z,19.39
2022-08-07T01:16:05.759Z,19.19
2022-08-07T01:17:58.916Z,19.33
2022-08-07T01:20:02.224Z,19.26
2022-08-07T01:22:06.577Z,19.13
2022-08-07T01:24:10.581Z,18.83
2022-08-07T01:26:16.756Z,18.89
2022-08-07T01:28:21.353Z,19.06
2022-08-07T01:30:27.232Z,18.89
2022-08-07T01:32:30.790Z,18.66
2022-08-07T01:34:32.877Z,18.86
2022-08-07T01:36:36.286Z,18.76
2022-08-07T01:38:43.442Z,18.76
2022-08-07T01:40:45.231Z,18.63
2022-08-07T01:42:57.445Z,18.78
2022-08-07T01:44:59.381Z,18.92
2022-08-07T01:48:16.930Z,18.68
2022-08-07T01:49:23.384Z,18.75
2022-08-07T01:52:02.206Z,18.59
2022-08-07T01:54:09.478Z,18.76
2022-08-07T01:56:12.284Z,18.72
2022-08-07T01:58:29.585Z,18.62
2022-08-07T02:00:34.648Z,18.57
2022-08-07T02:03:11.680Z,18.55
2022-08-07T02:05:04.993Z,18.77
2022-08-07T02:07:06.813Z,18.44
2022-08-07T02:09:11.660Z,18.48
2022-08-07T02:12:03.908Z,18.39
2022-08-07T02:13:57.427Z,18.47
2022-08-07T02:16:00.073Z,18.34
2022-08-07T02:18:03.170Z,18.60
2022-08-07T02:20:10.056Z,18.51
2022-08-07T02:22:21.559Z,18.45
2022-08-07T02:24:29.915Z,18.14
2022-08-07T02:26:34.621Z,18.48
2022-08-07T02:28:36.459Z,18.70
2022-08-07T02:30:41.875Z,18.32
2022-08-07T02:33:09.142Z,18.35
2022-08-07T02:35:06.185Z,18.45
2022-08-07T02:37:10.868Z,18.30
2022-08-07T02:39:16.253Z,18.48
2022-08-07T02:41:21.715Z,18.22
2022-08-07T02:43:23.620Z,17.89
2022-08-07T02:46:00.534Z,17.89
2022-08-07T02:47:49.176Z,17.99
2022-08-07T02:49:58.313Z,18.10
2022-08-07T02:52:01.721Z,18.24
2022-08-07T02:54:03.293Z,18.15
2022-08-07T02:56:07.250Z,17.92
2022-08-07T02:58:17.243Z,18.20
2022-08-07T03:00:23.406Z,18.08
2022-08-07T03:02:24.970Z,18.06
2022-08-07T03:04:27.940Z,17.88
2022-08-07T03:06:33.103Z,18.23
2022-08-07T03:08:36.208Z,18.34
2022-08-07T03:10:41.088Z,17.91
2022-08-07T03:12:48.435Z,18.07
2022-08-07T03:14:54.819Z,17.84
2022-08-07T03:16:56.357Z,17.58
2022-08-07T03:18:58.045Z,17.70
2022-08-07T03:20:59.615Z,17.93
2022-08-07T03:23:01.516Z,17.76
2022-08-07T03:25:03.172Z,17.68
2022-08-07T03:27:05.068Z,17.68
2022-08-07T03:29:11.321Z,17.64
2022-08-07T03:31:17.800Z,17.51
2022-08-07T03:33:20.252Z,17.71
2022-08-07T03:35:26.343Z,17.52
2022-08-07T03:37:28.112Z,17.61
2022-08-07T03:39:46.308Z,17.79
2022-08-07T03:41:55.802Z,17.53
2022-08-07T03:44:02.250Z,17.69
2022-08-07T03:46:04.080Z,17.40
2022-08-07T03:48:13.537Z,17.86
2022-08-07T03:50:15.055Z,17.60
2022-08-07T03:52:22.561Z,17.68
2022-08-07T03:54:35.770Z,17.38
2022-08-07T03:57:03.632Z,17.70
2022-08-07T03:59:09.284Z,17.28
2022-08-07T04:01:14.899Z,17.38
2022-08-07T04:03:17.862Z,17.57
2022-08-07T04:05:19.949Z,17.40
2022-08-07T04:07:25.673Z,17.19
2022-08-07T04:09:44.889Z,17.46
2022-08-07T04:12:26.622Z,17.55
2022-08-07T04:14:38.086Z,17.79
2022-08-07T04:16:32.407Z,17.46
2022-08-07T04:18:59.001Z,17.27
2022-08-07T04:20:57.042Z,17.48
2022-08-07T04:23:01.509Z,17.71
2022-08-07T04:25:03.924Z,17.54
2022-08-07T04:27:15.212Z,17.55
2022-08-07T04:29:22.386Z,17.69
2022-08-07T04:31:39.274Z,17.59
2022-08-07T04:33:47.342Z,17.52
2022-08-07T04:35:56.679Z,17.45
2022-08-07T04:38:03.731Z,17.41
2022-08-07T04:40:09.018Z,17.50
2022-08-07T04:42:10.537Z,17.53
2022-08-07T04:44:18.445Z,17.26
2022-08-07T04:46:29.482Z,17.48
2022-08-07T04:48:39.545Z,17.73
2022-08-07T04:50:52.982Z,17.82
2022-08-07T04:52:56.762Z,17.28
2022-08-07T04:55:02.035Z,17.51
2022-08-07T04:58:09.706Z,17.38
2022-08-07T05:00:12.442Z,17.36
2022-08-07T05:02:16.962Z,17.75
2022-08-07T05:04:22.605Z,18.03
2022-08-07T05:06:43.300Z,17.98
2022-08-07T05:09:01.063Z,17.70
2022-08-07T05:11:05.029Z,17.70
2022-08-07T05:14:55.448Z,17.92
2022-08-07T05:15:37.744Z,17.85
2022-08-07T05:17:52.481Z,17.93
2022-08-07T05:19:56.318Z,17.94
2022-08-07T05:22:01.854Z,18.03
2022-08-07T05:24:07.343Z,18.23
2022-08-07T05:26:18.703Z,17.97
2022-08-07T05:28:26.684Z,17.95
2022-08-07T05:30:32.726Z,18.12
2022-08-07T05:32:34.794Z,18.31
2022-08-07T05:34:36.598Z,18.25
2022-08-07T05:36:39.133Z,18.33
2022-08-07T05:38:58.176Z,18.13
2022-08-07T05:41:12.441Z,17.93
2022-08-07T05:43:17.661Z,18.27
2022-08-07T05:45:46.129Z,18.08
2022-08-07T05:48:02.136Z,18.45
2022-08-07T05:50:04.836Z,18.45
2022-08-07T05:52:07.594Z,18.29
2022-08-07T05:54:37.198Z,18.51
2022-08-07T05:56:36.098Z,18.39
2022-08-07T05:58:37.738Z,18.34
2022-08-07T06:00:40.894Z,18.40
2022-08-07T06:02:48.453Z,18.91
2022-08-07T06:04:51.572Z,19.14
2022-08-07T06:06:56.491Z,19.16
2022-08-07T06:09:05.214Z,18.82
2022-08-07T06:11:08.743Z,18.66
2022-08-07T06:13:13.317Z,18.90
2022-08-07T06:15:20.049Z,19.10
2022-08-07T06:17:22.422Z,19.26
2022-08-07T06:19:52.211Z,19.18
2022-08-07T06:22:16.585Z,19.22
2022-08-07T06:24:38.299Z,19.56
2022-08-07T06:26:40.143Z,19.30
2022-08-07T06:28:49.461Z,19.35
2022-08-07T06:30:54.373Z,18.71
2022-08-07T06:32:56.097Z,18.93
2022-08-07T06:34:59.336Z,18.98
2022-08-07T06:37:02.635Z,19.10
2022-08-07T06:40:15.683Z,19.09
2022-08-07T06:41:29.409Z,19.63
2022-08-07T06:43:59.263Z,19.72
2022-08-07T06:46:12.256Z,20.06
2022-08-07T06:48:14.065Z,20.11
2022-08-07T06:50:17.663Z,20.45
2022-08-07T06:52:31.410Z,20.56
2022-08-07T06:55:32.250Z,20.42
2022-08-07T06:56:59.061Z,20.42
2022-08-07T07:00:13.971Z,20.57
2022-08-07T07:01:23.581Z,20.32
2022-08-07T07:03:37.320Z,20.65
2022-08-07T07:06:04.955Z,20.90
2022-08-07T07:08:07.312Z,20.66
2022-08-07T07:10:11.692Z,20.72
2022-08-07T07:12:37.062Z,21.03
2022-08-07T07:14:47.779Z,21.02
2022-08-07T07:16:51.226Z,21.54
2022-08-07T07:18:55.879Z,21.18
2022-08-07T07:20:59.270Z,21.05
2022-08-07T07:24:09.091Z,21.44
2022-08-07T07:26:34.379Z,21.89
2022-08-07T07:27:56.190Z,21.84
2022-08-07T07:30:08.846Z,21.37
2022-08-07T07:32:11.457Z,22.21
2022-08-07T07:34:15.650Z,22.54
2022-08-07T07:36:17.556Z,22.43
2022-08-07T07:38:20.762Z,21.86
2022-08-07T07:40:26.113Z,22.41
2022-08-07T07:42:33.261Z,22.58
2022-08-07T07:44:34.967Z,22.52
2022-08-07T07:46:54.661Z,22.36
2022-08-07T07:49:00.204Z,22.62
2022-08-07T07:51:20.832Z,22.28
2022-08-07T07:53:23.227Z,22.58
2022-08-07T07:55:27.860Z,22.28
2022-08-07T07:57:43.612Z,22.96
2022-08-07T07:59:53.957Z,22.57
2022-08-07T08:02:01.530Z,22.53
2022-08-07T08:04:11.668Z,22.42
2022-08-07T08:06:13.567Z,23.28
2022-08-07T08:08:36.328Z,22.80
2022-08-07T08:10:38.652Z,23.07
2022-08-07T08:12:58.886Z,23.10
2022-08-07T08:15:01.325Z,23.27
2022-08-07T08:17:55.554Z,23.58
2022-08-07T08:20:22.471Z,23.73
2022-08-07T08:21:55.749Z,23.78
2022-08-07T08:24:05.348Z,23.54
2022-08-07T08:26:20.031Z,23.36
2022-08-07T08:28:23.951Z,23.55
2022-08-07T08:30:42.908Z,24.30
2022-08-07T08:32:54.660Z,24.09
2022-08-07T08:34:57.973Z,23.88
2022-08-07T08:36:59.631Z,23.94
2022-08-07T08:39:02.678Z,24.02
2022-08-07T08:41:05.696Z,24.26
2022-08-07T08:43:09.281Z,24.21
2022-08-07T08:45:13.506Z,24.13
2022-08-07T08:47:17.497Z,23.69
2022-08-07T08:49:33.116Z,23.94
2022-08-07T08:52:01.141Z,23.85
2022-08-07T08:54:00.479Z,24.39
2022-08-07T08:56:03.714Z,24.60
2022-08-07T08:58:06.914Z,24.57
2022-08-07T09:00:14.887Z,24.35
2022-08-07T09:02:18.443Z,24.28
2022-08-07T09:04:40.669Z,24.68
2022-08-07T09:06:47.853Z,24.69
2022-08-07T09:08:52.106Z,24.77
2022-08-07T09:10:56.545Z,24.91
2022-08-07T09:13:02.476Z,25.08
2022-08-07T09:16:23.251Z,25.85
2022-08-07T09:17:59.337Z,25.29
2022-08-07T09:20:34.702Z,26.01
2022-08-07T09:24:33.137Z,25.91
2022-08-07T09:25:17.588Z,25.97
2022-08-07T09:27:30.315Z,25.90
2022-08-07T09:30:04.954Z,25.85
2022-08-07T09:31:56.308Z,25.84
2022-08-07T09:34:04.485Z,25.12
2022-08-07T09:36:09.658Z,25.75
2022-08-07T09:38:13.833Z,26.37
2022-08-07T09:40:17.850Z,26.24
2022-08-07T09:42:24.904Z,25.77
2022-08-07T09:44:46.591Z,26.56
2022-08-07T09:47:51.467Z,26.59
2022-08-07T09:50:04.079Z,26.53
2022-08-07T09:52:09.973Z,26.75
2022-08-07T09:54:16.247Z,26.05
2022-08-07T09:56:37.406Z,26.09
2022-08-07T09:59:13.793Z,25.67
2022-08-07T10:01:50.542Z,26.07
2022-08-07T10:04:05.008Z,27.18
2022-08-07T10:06:24.277Z,27.15
2022-08-07T10:08:41.076Z,27.69
2022-08-07T10:11:16.895Z,26.81
2022-08-07T10:13:55.436Z,27.40
2022-08-07T10:15:50.055Z,26.86
2022-08-07T10:18:01.119Z,27.35
2022-08-07T10:20:08.422Z,27.17
2022-08-07T10:22:38.692Z,27.11
2022-08-07T10:25:05.412Z,27.73
2022-08-07T10:27:12.774Z,27.84
2022-08-07T10:29:21.243Z,27.67
2022-08-07T10:31:49.745Z,28.42
2022-08-07T10:34:05.914Z,27.99
2022-08-07T10:36:29.867Z,26.63
2022-08-07T10:38:49.260Z,26.36
2022-08-07T10:40:52.182Z,26.78
2022-08-07T10:42:59.116Z,27.45
2022-08-07T10:45:01.553Z,27.16
2022-08-07T10:47:05.850Z,26.06
2022-08-07T10:49:14.908Z,26.75
2022-08-07T10:51:39.315Z,27.15
2022-08-07T10:53:44.135Z,26.97
2022-08-07T10:55:47.502Z,27.16
2022-08-07T10:57:51.470Z,27.59
2022-08-07T11:00:01.906Z,26.98
2022-08-07T11:02:12.330Z,26.77
2022-08-07T11:04:31.442Z,27.00
2022-08-07T11:06:36.716Z,27.54
2022-08-07T11:08:40.338Z,27.73
2022-08-07T11:10:42.678Z,27.62
2022-08-07T11:13:02.266Z,27.38
2022-08-07T11:15:14.667Z,27.40
2022-08-07T11:17:33.372Z,26.89
2022-08-07T11:19:43.341Z,27.35
2022-08-07T11:21:45.584Z,27.84
2022-08-07T11:23:48.330Z,27.80
2022-08-07T11:25:51.169Z,27.49
2022-08-07T11:28:02.605Z,27.77
2022-08-07T11:30:18.532Z,27.21
2022-08-07T11:32:25.686Z,27.76
2022-08-07T11:34:29.280Z,27.76
2022-08-07T11:36:34.766Z,27.87
2022-08-07T11:38:37.505Z,28.49
2022-08-07T11:40:49.448Z,27.93
2022-08-07T11:42:53.380Z,27.84
2022-08-07T11:44:58.764Z,27.85
2022-08-07T11:47:04.741Z,27.36
2022-08-07T11:50:11.305Z,27.10
2022-08-07T11:51:52.771Z,28.07
2022-08-07T11:53:57.763Z,28.22
2022-08-07T11:56:26.752Z,27.81
2022-08-07T11:58:33.304Z,27.59
2022-08-07T12:00:38.369Z,28.46
2022-08-07T12:02:57.568Z,29.00
2022-08-07T12:05:09.026Z,27.98
2022-08-07T12:07:27.338Z,27.83
2022-08-07T12:09:32.740Z,27.99
2022-08-07T12:11:35.476Z,28.10
2022-08-07T12:13:47.818Z,28.21
2022-08-07T12:16:06.901Z,27.75
2022-08-07T12:18:13.118Z,27.99
2022-08-07T12:20:30.783Z,27.82
2022-08-07T12:22:46.949Z,27.43
2022-08-07T12:25:02.222Z,27.99
2022-08-07T12:27:16.357Z,28.60
2022-08-07T12:29:37.954Z,28.92
2022-08-07T12:32:01.902Z,28.23
2022-08-07T12:34:04.644Z,28.04
2022-08-07T12:36:14.527Z,28.35
2022-08-07T12:38:36.809Z,29.19
2022-08-07T12:40:47.780Z,29.44
2022-08-07T12:42:55.169Z,28.79
2022-08-07T12:44:59.386Z,28.88
2022-08-07T12:47:03.457Z,29.04
2022-08-07T12:49:39.776Z,29.21
2022-08-07T12:51:51.302Z,28.72
2022-08-07T12:54:03.090Z,29.64
2022-08-07T12:56:26.637Z,28.85
2022-08-07T12:58:35.116Z,28.45
2022-08-07T13:00:41.707Z,27.90
2022-08-07T13:02:59.582Z,28.61
2022-08-07T13:05:14.662Z,28.59
2022-08-07T13:08:12.215Z,28.52
2022-08-07T13:10:38.240Z,29.03
2022-08-07T13:12:33.735Z,29.21
2022-08-07T13:14:38.430Z,28.94
2022-08-07T13:16:55.358Z,30.59
2022-08-07T13:18:59.708Z,32.64
2022-08-07T13:21:02.790Z,33.42
2022-08-07T13:24:02.184Z,34.06
2022-08-07T13:25:30.605Z,34.18
2022-08-07T13:28:10.844Z,34.96
2022-08-07T13:29:56.732Z,34.67
2022-08-07T13:32:31.567Z,33.79
2022-08-07T13:34:33.999Z,33.34
2022-08-07T13:36:40.554Z,34.43
2022-08-07T13:38:47.704Z,35.17
2022-08-07T13:40:54.296Z,34.56
2022-08-07T13:42:56.791Z,34.15
2022-08-07T13:45:20.851Z,36.34
2022-08-07T13:47:25.094Z,35.86
2022-08-07T13:50:34.002Z,34.56
2022-08-07T13:52:05.270Z,36.49
2022-08-07T13:54:16.325Z,34.21
2022-08-07T13:56:35.319Z,35.06
2022-08-07T13:58:42.566Z,35.59
2022-08-07T14:00:58.559Z,36.47
2022-08-07T14:03:00.131Z,38.06
2022-08-07T14:05:02.962Z,37.37
2022-08-07T14:07:06.259Z,38.50
2022-08-07T14:09:17.054Z,35.42
2022-08-07T14:11:53.398Z,38.09
2022-08-07T14:14:03.372Z,40.05
2022-08-07T14:16:06.403Z,39.80
2022-08-07T14:18:29.225Z,41.26
2022-08-07T14:20:40.602Z,39.80
2022-08-07T14:22:46.642Z,40.82
2022-08-07T14:24:49.994Z,39.84
2022-08-07T14:26:54.657Z,39.47
2022-08-07T14:29:04.489Z,41.76
2022-08-07T14:31:12.334Z,40.26
2022-08-07T14:33:14.888Z,39.25
2022-08-07T14:35:45.176Z,39.10
2022-08-07T14:37:39.992Z,38.56
2022-08-07T14:40:17.299Z,39.87
2022-08-07T14:42:17.145Z,39.28
2022-08-07T14:44:22.459Z,39.59
2022-08-07T14:46:31.034Z,40.59
2022-08-07T14:48:34.685Z,40.96
2022-08-07T14:50:37.543Z,39.11
2022-08-07T14:52:39.389Z,42.15
2022-08-07T14:57:05.829Z,43.26
2022-08-07T14:59:14.101Z,45.30
2022-08-07T15:03:53.296Z,42.00
2022-08-07T15:08:21.857Z,42.32
2022-08-07T15:10:33.960Z,42.17
2022-08-07T15:12:36.932Z,41.62
2022-08-07T15:14:57.742Z,41.60
2022-08-07T15:17:00.576Z,40.03
2022-08-07T15:19:02.686Z,39.93
2022-08-07T15:25:02.847Z,43.00
2022-08-07T15:25:56.147Z,41.46
2022-08-07T15:28:30.970Z,40.14
2022-08-07T15:30:21.861Z,38.91
2022-08-07T15:32:39.351Z,40.65
2022-08-07T15:37:10.611Z,39.62
2022-08-07T15:39:12.269Z,39.53
2022-08-07T15:41:23.806Z,37.49
2022-08-07T15:43:55.645Z,39.86
2022-08-07T15:46:04.523Z,40.11
2022-08-07T15:48:22.423Z,40.67
2022-08-07T15:51:01.584Z,40.73
2022-08-07T15:52:51.876Z,41.76
2022-08-07T15:54:54.043Z,42.83
2022-08-07T15:56:56.186Z,40.32
2022-08-07T15:59:01.273Z,40.43
2022-08-07T16:01:03.294Z,41.18
2022-08-07T16:03:06.907Z,40.19
2022-08-07T16:05:23.101Z,39.90
2022-08-07T16:08:31.347Z,40.30
2022-08-07T16:09:57.474Z,40.44
2022-08-07T16:12:03.149Z,41.56
2022-08-07T16:14:11.787Z,41.47
2022-08-07T16:16:43.005Z,42.36
2022-08-07T16:18:50.380Z,41.60
2022-08-07T16:21:42.879Z,42.05
2022-08-07T16:23:53.043Z,41.70
2022-08-07T16:25:54.631Z,39.73
2022-08-07T16:27:59.923Z,39.62
2022-08-07T16:30:10.356Z,39.38
2022-08-07T16:32:34.919Z,41.09
2022-08-07T16:34:39.340Z,41.16
2022-08-07T16:37:02.420Z,40.71
2022-08-07T16:39:40.504Z,39.53
2022-08-07T16:42:01.732Z,40.21
2022-08-07T16:44:46.271Z,39.81
2022-08-07T16:47:04.952Z,38.59
2022-08-07T16:50:20.740Z,41.48
2022-08-07T16:51:57.858Z,40.54
2022-08-07T16:54:19.147Z,39.34
2022-08-07T16:56:25.161Z,40.03
2022-08-07T16:58:54.251Z,40.51
2022-08-07T17:01:00.571Z,39.03
2022-08-07T17:03:09.221Z,38.93
2022-08-07T17:06:02.336Z,41.14
2022-08-07T17:07:51.584Z,42.34
2022-08-07T17:10:06.561Z,41.22
2022-08-07T17:12:44.765Z,38.66
2022-08-07T17:14:33.968Z,39.60
2022-08-07T17:16:39.905Z,39.41
2022-08-07T17:18:49.478Z,37.87
2022-08-07T17:20:54.733Z,38.56
2022-08-07T17:22:57.838Z,39.00
2022-08-07T17:25:03.654Z,37.97
2022-08-07T17:27:11.214Z,38.03
2022-08-07T17:30:14.988Z,39.03
2022-08-07T17:32:02.594Z,37.29
2022-08-07T17:34:33.266Z,36.71
2022-08-07T17:36:33.764Z,37.37
2022-08-07T17:39:00.863Z,38.53
2022-08-07T17:42:00.729Z,37.51
2022-08-07T17:44:01.801Z,38.28
2022-08-07T17:45:51.063Z,37.25
2022-08-07T17:47:58.353Z,38.56
2022-08-07T17:50:01.413Z,38.34
2022-08-07T17:52:10.529Z,39.06
2022-08-07T17:54:29.720Z,39.06
2022-08-07T17:56:49.894Z,38.20
2022-08-07T17:58:57.470Z,38.98
2022-08-07T18:00:59.496Z,38.48
2022-08-07T18:03:09.096Z,38.10
2022-08-07T18:05:21.620Z,37.84
2022-08-07T18:07:37.367Z,37.78
2022-08-07T18:10:05.093Z,36.11
2022-08-07T18:12:19.669Z,36.58
2022-08-07T18:14:31.545Z,36.35
2022-08-07T18:16:58.047Z,36.87
2022-08-07T18:21:08.958Z,36.38
2022-08-07T18:21:53.399Z,35.63
2022-08-07T18:23:59.833Z,35.06
2022-08-07T18:26:03.567Z,35.25
2022-08-07T18:28:21.550Z,34.57
2022-08-07T18:30:36.867Z,34.78
2022-08-07T18:33:11.939Z,34.46
2022-08-07T18:35:16.765Z,33.11
2022-08-07T18:38:56.218Z,34.39
2022-08-07T18:40:05.476Z,33.89
2022-08-07T18:42:13.494Z,32.92
2022-08-07T18:44:23.843Z,32.47
2022-08-07T18:46:28.220Z,33.06
2022-08-07T18:49:23.894Z,33.66
2022-08-07T18:51:04.361Z,32.31
2022-08-07T18:53:12.620Z,32.04
2022-08-07T18:55:43.151Z,32.62
2022-08-07T18:57:43.117Z,32.09
2022-08-07T19:00:04.251Z,30.70
2022-08-07T19:02:34.108Z,31.35
2022-08-07T19:04:57.684Z,30.58
2022-08-07T19:07:04.337Z,30.57
2022-08-07T19:09:15.905Z,29.78
2022-08-07T19:11:38.581Z,29.20
2022-08-07T19:14:00.684Z,28.18
2022-08-07T19:17:00.748Z,27.83
2022-08-07T19:18:44.972Z,27.49
2022-08-07T19:21:09.871Z,27.20
2022-08-07T19:23:18.685Z,26.91
2022-08-07T19:26:21.644Z,26.84
2022-08-07T19:28:56.835Z,27.05
2022-08-07T19:30:57.947Z,26.78
2022-08-07T19:32:35.790Z,26.76
2022-08-07T19:34:49.098Z,26.76
2022-08-07T19:36:53.628Z,26.52
2022-08-07T19:39:11.789Z,26.73
2022-08-07T19:41:14.692Z,26.24
2022-08-07T19:43:21.664Z,26.24
2022-08-07T19:46:07.307Z,26.07
2022-08-07T19:48:02.758Z,26.07
2022-08-07T19:50:44.552Z,26.11
2022-08-07T19:52:27.924Z,25.95
2022-08-07T19:54:44.003Z,25.94
2022-08-07T19:57:56.826Z,26.00
2022-08-07T19:59:15.852Z,25.74
2022-08-07T20:01:17.510Z,25.59
2022-08-07T20:03:34.751Z,25.59
2022-08-07T20:06:00.944Z,25.65
2022-08-07T20:08:01.174Z,25.78
2022-08-07T20:10:36.797Z,25.43
2022-08-07T20:12:34.902Z,25.66
2022-08-07T20:14:38.937Z,25.55
2022-08-07T20:16:56.475Z,25.41
2022-08-07T20:18:58.433Z,25.32
2022-08-07T20:20:59.957Z,25.35
2022-08-07T20:23:10.876Z,25.29
2022-08-07T20:25:23.719Z,25.31
2022-08-07T20:27:47.441Z,25.37
2022-08-07T20:29:56.752Z,25.21
2022-08-07T20:32:01.123Z,25.09
2022-08-07T20:34:02.663Z,25.16
2022-08-07T20:36:04.374Z,25.12
2022-08-07T20:38:07.908Z,25.39
2022-08-07T20:40:32.062Z,25.28
2022-08-07T20:42:33.729Z,25.07
2022-08-07T20:44:37.987Z,25.17
2022-08-07T20:46:42.884Z,25.00
2022-08-07T20:49:55.130Z,24.99
2022-08-07T20:51:10.010Z,25.09
2022-08-07T20:53:12.397Z,24.80
2022-08-07T20:55:13.957Z,25.03
2022-08-07T20:57:18.857Z,24.84
2022-08-07T21:00:04.990Z,24.60
2022-08-07T21:01:55.259Z,24.66
2022-08-07T21:04:19.899Z,24.57
2022-08-07T21:06:28.075Z,24.60
2022-08-07T21:08:37.653Z,24.67
2022-08-07T21:10:40.602Z,24.59
2022-08-07T21:12:42.121Z,24.39
2022-08-07T21:14:53.757Z,24.55
2022-08-07T21:18:01.265Z,24.28
2022-08-07T21:19:19.500Z,24.47
2022-08-07T21:21:21.105Z,24.57
2022-08-07T21:23:33.212Z,24.60
2022-08-07T21:25:56.357Z,24.34
2022-08-07T21:28:02.348Z,24.35
2022-08-07T21:30:06.358Z,24.41
2022-08-07T21:32:47.679Z,24.39
2022-08-07T21:34:32.572Z,24.19
2022-08-07T21:36:34.960Z,24.37
2022-08-07T21:38:39.236Z,24.21
2022-08-07T21:40:47.671Z,24.26
2022-08-07T21:42:54.820Z,24.00
2022-08-07T21:44:56.982Z,24.13
2022-08-07T21:47:01.498Z,24.35
2022-08-07T21:49:04.748Z,24.19
2022-08-07T21:51:20.017Z,23.93
2022-08-07T21:53:29.287Z,24.16
2022-08-07T21:55:31.197Z,23.82
2022-08-07T21:57:44.422Z,23.92
2022-08-07T22:00:05.120Z,23.72
2022-08-07T22:02:13.066Z,24.03
2022-08-07T22:04:17.649Z,23.64
2022-08-07T22:06:30.761Z,23.56
2022-08-07T22:08:34.182Z,23.32
2022-08-07T22:10:35.763Z,23.43
2022-08-07T22:12:38.729Z,23.35
2022-08-07T22:14:59.998Z,23.30
2022-08-07T22:17:02.035Z,23.36
2022-08-07T22:19:08.658Z,23.16
2022-08-07T22:21:14.617Z,23.13
2022-08-07T22:23:17.689Z,23.20
2022-08-07T22:25:26.909Z,23.07
2022-08-07T22:27:51.175Z,23.18
2022-08-07T22:29:54.718Z,23.02
2022-08-07T22:32:05.319Z,22.89
2022-08-07T22:34:13.229Z,22.78
2022-08-07T22:36:17.335Z,22.74
2022-08-07T22:38:27.066Z,22.68
2022-08-07T22:40:29.858Z,22.81
2022-08-07T22:42:31.396Z,22.61
2022-08-07T22:44:35.239Z,22.67
2022-08-07T22:47:04.155Z,22.49
2022-08-07T22:49:16.714Z,22.60
2022-08-07T22:51:36.499Z,22.48
2022-08-07T22:54:07.030Z,22.70
2022-08-07T22:56:09.687Z,22.26
2022-08-07T22:58:18.197Z,22.06
2022-08-07T23:00:21.314Z,22.14
2022-08-07T23:02:30.943Z,22.32
2022-08-07T23:04:57.915Z,22.28
2022-08-07T23:07:28.398Z,22.11
2022-08-07T23:10:04.110Z,22.18
2022-08-07T23:12:04.009Z,22.11
2022-08-07T23:14:16.107Z,22.01
2022-08-07T23:16:46.769Z,21.73
2022-08-07T23:18:42.170Z,21.80
2022-08-07T23:20:53.174Z,22.00
2022-08-07T23:23:05.127Z,21.86
2022-08-07T23:25:13.825Z,21.87
2022-08-07T23:27:33.777Z,22.11
2022-08-07T23:30:38.666Z,21.85
2022-08-07T23:34:21.310Z,21.88
2022-08-07T23:34:47.617Z,21.85
2022-08-07T23:37:17.943Z,21.86
2022-08-07T23:39:17.470Z,21.83
2022-08-07T23:41:33.446Z,21.72
2022-08-07T23:43:44.020Z,21.98
2022-08-07T23:46:03.690Z,21.65
2022-08-07T23:50:16.647Z,21.61
2022-08-07T23:53:00.669Z,21.63
2022-08-07T23:54:46.808Z,21.51
2022-08-07T23:56:55.309Z,21.72
2022-08-07T23:58:59.365Z,21.44
